Time;durP1;ratioP1;P1;durP2;ratioP2;P2;SDS_P1;SDS_P2;PMS_P1;PMS_P2;Temp;Humidity;BMP_temperature;BMP_pressure;BME280_temperature;BME280_humidity;BME280_pressure;Samples;Min_cycle;Max_cycle;Signal;HPM_P1;HPM_P2
2022/07/29 00:01:22;;;;;;;6.43;1.53;;;20.80;50.00;;;;;;4991630;28;20222;-85
2022/07/29 00:03:48;;;;;;;5.23;1.47;;;20.70;44.00;;;;;;4993522;28;20249;-84
2022/07/29 00:06:14;;;;;;;2.13;1.60;;;20.70;44.50;;;;;;4977460;28;20241;-85
2022/07/29 00:08:40;;;;;;;6.53;2.03;;;20.70;44.20;;;;;;4995233;28;20525;-85
2022/07/29 00:11:05;;;;;;;5.87;1.83;;;20.60;44.50;;;;;;4990663;28;20562;-84
2022/07/29 00:13:31;;;;;;;4.80;2.50;;;20.70;44.60;;;;;;4978232;28;20182;-85
2022/07/29 00:15:56;;;;;;;4.93;1.67;;;20.70;45.20;;;;;;4993799;28;20241;-84
2022/07/29 00:18:22;;;;;;;4.53;1.50;;;20.70;45.60;;;;;;4976544;28;20193;-84
2022/07/29 00:20:48;;;;;;;5.27;1.67;;;20.70;46.20;;;;;;4976387;28;20679;-85
2022/07/29 00:23:13;;;;;;;5.47;2.03;;;20.70;46.20;;;;;;4993637;28;20678;-84
2022/07/29 00:25:39;;;;;;;3.70;1.90;;;20.60;45.70;;;;;;4993901;28;20210;-85
2022/07/29 00:28:04;;;;;;;3.77;2.23;;;20.60;46.40;;;;;;4977968;28;20181;-84
2022/07/29 00:30:30;;;;;;;4.30;1.87;;;20.70;46.40;;;;;;4994439;28;20631;-84
2022/07/29 00:32:55;;;;;;;6.57;1.60;;;20.60;47.00;;;;;;4993581;28;20277;-85
2022/07/29 00:38:05;;;;;;;5.10;2.00;;;20.60;48.60;;;;;;5015840;22;20602;-84
2022/07/29 00:40:31;;;;;;;9.63;2.10;;;20.60;47.80;;;;;;4991282;28;20538;-84
2022/07/29 00:42:56;;;;;;;5.20;1.77;;;20.50;47.80;;;;;;4991157;28;20199;-84
2022/07/29 00:45:22;;;;;;;6.67;2.00;;;20.50;48.10;;;;;;4978466;28;20541;-84
2022/07/29 00:47:48;;;;;;;3.50;1.80;;;20.50;48.50;;;;;;4976903;28;20211;-84
2022/07/29 00:50:14;;;;;;;4.73;1.50;;;20.50;49.00;;;;;;4977981;28;20290;-84
2022/07/29 00:52:41;;;;;;;3.70;1.67;;;20.50;49.60;;;;;;4975870;28;20437;-84
2022/07/29 00:55:09;;;;;;;4.07;2.03;;;20.50;50.20;;;;;;4979136;28;20555;-83
2022/07/29 00:57:35;;;;;;;4.80;1.80;;;20.40;50.40;;;;;;4989124;28;20545;-84
2022/07/29 01:00:06;;;;;;;3.20;2.20;;;20.40;50.70;;;;;;4974641;28;20424;-84
2022/07/29 01:02:32;;;;;;;6.73;1.63;;;20.40;51.00;;;;;;4973786;28;20533;-84
2022/07/29 01:04:57;;;;;;;5.00;2.00;;;20.40;51.50;;;;;;4989149;28;20536;-84
2022/07/29 01:07:25;;;;;;;3.90;1.47;;;20.40;51.00;;;;;;4984834;28;20204;-83
2022/07/29 01:09:52;;;;;;;5.97;1.80;;;20.40;52.10;;;;;;4976717;28;20433;-84
2022/07/29 01:12:22;;;;;;;3.73;2.20;;;20.40;52.00;;;;;;4973037;28;20503;-84
2022/07/29 01:14:49;;;;;;;3.13;1.83;;;20.40;52.70;;;;;;4990969;28;20521;-84
2022/07/29 01:17:23;;;;;;;4.13;1.50;;;20.40;53.30;;;;;;4973441;28;20474;-84
2022/07/29 01:19:56;;;;;;;2.80;1.50;;;20.40;53.10;;;;;;4993738;28;20433;-84
2022/07/29 01:22:48;;;;;;;11.13;1.90;;;20.40;53.90;;;;;;4973927;28;20435;-84
2022/07/29 01:25:27;;;;;;;3.83;2.17;;;20.30;54.80;;;;;;4970350;28;20516;-83
2022/07/29 01:27:59;;;;;;;5.00;2.30;;;20.30;54.40;;;;;;4989557;28;20981;-84
2022/07/29 01:30:26;;;;;;;5.00;1.90;;;20.20;55.10;;;;;;4993650;28;20491;-83
2022/07/29 01:32:57;;;;;;;5.27;2.40;;;20.20;55.60;;;;;;4992973;28;20444;-84
2022/07/29 01:35:26;;;;;;;7.03;2.30;;;20.10;55.20;;;;;;4989250;28;20439;-84
2022/07/29 01:38:01;;;;;;;7.57;2.60;;;20.00;55.50;;;;;;4992854;28;20469;-83
2022/07/29 01:40:33;;;;;;;3.40;1.70;;;20.00;55.70;;;;;;4975964;28;20455;-84
2022/07/29 01:43:07;;;;;;;6.80;2.70;;;20.10;57.20;;;;;;4990524;28;20445;-84
2022/07/29 01:45:45;;;;;;;8.50;2.33;;;20.10;57.40;;;;;;4970481;28;20499;-83
2022/07/29 01:48:33;;;;;;;8.50;2.63;;;20.10;58.40;;;;;;4988897;28;20450;-83
2022/07/29 01:51:07;;;;;;;4.97;2.03;;;20.00;58.20;;;;;;4981338;28;20464;-84
2022/07/29 01:53:43;;;;;;;2.73;2.00;;;20.00;61.20;;;;;;4976656;28;20742;-84
2022/07/29 01:56:10;;;;;;;6.60;2.63;;;20.00;58.20;;;;;;4990997;28;20515;-84
2022/07/29 01:58:40;;;;;;;3.47;1.90;;;20.00;58.40;;;;;;4990897;28;20893;-83
2022/07/29 02:01:09;;;;;;;3.00;2.30;;;20.00;75.90;;;;;;4986987;28;20519;-84
2022/07/29 02:03:36;;;;;;;6.60;1.97;;;20.00;58.50;;;;;;4978548;28;20472;-84
2022/07/29 02:06:04;;;;;;;6.10;2.27;;;20.00;58.80;;;;;;4972677;28;20845;-83
2022/07/29 02:08:31;;;;;;;4.50;2.00;;;20.00;59.80;;;;;;4974212;28;20461;-84
2022/07/29 02:10:59;;;;;;;4.57;1.67;;;20.00;60.30;;;;;;4986499;28;20478;-84
2022/07/29 02:13:27;;;;;;;5.73;1.60;;;20.00;59.30;;;;;;4994975;28;20883;-84
2022/07/29 02:15:55;;;;;;;6.67;1.60;;;20.10;58.80;;;;;;4987626;28;20440;-84
2022/07/29 02:18:23;;;;;;;3.23;2.17;;;20.10;58.80;;;;;;4988730;28;20960;-83
2022/07/29 02:20:52;;;;;;;9.10;2.07;;;20.10;59.40;;;;;;4975506;28;20561;-84
2022/07/29 02:23:21;;;;;;;5.37;1.80;;;20.00;59.50;;;;;;4979640;28;20447;-84
2022/07/29 02:25:54;;;;;;;7.77;2.30;;;20.00;59.50;;;;;;4981335;28;20476;-84
2022/07/29 02:28:26;;;;;;;5.53;1.60;;;20.00;60.10;;;;;;4993307;28;20461;-84
2022/07/29 02:30:54;;;;;;;4.10;2.30;;;20.00;60.30;;;;;;4978893;28;20520;-84
2022/07/29 02:33:21;;;;;;;5.87;2.00;;;20.00;60.60;;;;;;4979959;28;20953;-83
2022/07/29 02:35:48;;;;;;;7.40;1.90;;;20.00;60.70;;;;;;4978083;28;20436;-84
2022/07/29 02:41:05;;;;;;;5.10;1.77;;;20.00;62.20;;;;;;4992492;28;20475;-84
2022/07/29 02:43:33;;;;;;;3.73;1.80;;;20.00;61.60;;;;;;4981234;28;20448;-84
2022/07/29 02:46:00;;;;;;;6.93;2.70;;;19.90;61.90;;;;;;4978895;28;20437;-84
2022/07/29 02:48:38;;;;;;;7.00;2.17;;;19.90;62.60;;;;;;4979981;28;20973;-83
2022/07/29 02:51:22;;;;;;;6.60;1.83;;;19.80;64.00;;;;;;4992896;28;20471;-84
2022/07/29 02:53:53;;;;;;;6.70;2.37;;;19.80;63.90;;;;;;4996668;28;20462;-84
2022/07/29 02:56:28;;;;;;;3.53;2.03;;;19.80;67.40;;;;;;4987859;28;20439;-83
2022/07/29 02:59:00;;;;;;;9.30;2.77;;;19.80;73.00;;;;;;4976709;28;20472;-83
2022/07/29 03:01:31;;;;;;;4.73;2.03;;;19.70;80.70;;;;;;4969665;28;20451;-83
2022/07/29 03:04:00;;;;;;;9.30;3.80;;;19.70;90.00;;;;;;4976929;28;20483;-84
2022/07/29 03:06:28;;;;;;;6.40;2.73;;;19.60;94.20;;;;;;4986842;28;20928;-84
2022/07/29 03:08:55;;;;;;;8.90;2.57;;;19.60;99.90;;;;;;4975591;28;20555;-84
2022/07/29 03:11:21;;;;;;;4.03;2.90;;;19.50;99.90;;;;;;4972948;28;20490;-84
2022/07/29 03:13:47;;;;;;;7.23;2.90;;;19.30;99.90;;;;;;4988608;28;20439;-84
2022/07/29 03:16:13;;;;;;;12.80;3.37;;;19.20;99.90;;;;;;4985622;28;20462;-83
2022/07/29 03:18:39;;;;;;;5.20;2.77;;;19.00;99.90;;;;;;4989274;28;20451;-83
2022/07/29 03:21:05;;;;;;;6.43;2.73;;;18.90;99.90;;;;;;4974870;28;20203;-84
2022/07/29 03:23:30;;;;;;;7.50;3.00;;;18.70;99.90;;;;;;4974614;28;20909;-84
2022/07/29 03:25:56;;;;;;;7.63;3.17;;;18.60;99.90;;;;;;4971446;28;20238;-84
2022/07/29 03:28:22;;;;;;;8.80;3.13;;;18.50;99.90;;;;;;4987579;28;20497;-83
2022/07/29 03:30:49;;;;;;;5.93;3.23;;;18.40;99.90;;;;;;4989749;28;20205;-84
2022/07/29 03:33:15;;;;;;;10.37;3.17;;;18.40;99.90;;;;;;4970820;28;20448;-84
2022/07/29 03:35:41;;;;;;;5.87;2.87;;;18.30;1.00;;;;;;4970382;28;20436;-84
2022/07/29 03:38:07;;;;;;;8.40;2.60;;;18.30;1.00;;;;;;4984762;28;20829;-83
2022/07/29 03:40:46;;;;;;;6.63;4.03;;;18.30;1.00;;;;;;4974225;28;20926;-84
2022/07/29 03:43:14;;;;;;;7.20;3.03;;;18.20;1.00;;;;;;4972440;28;20195;-84
2022/07/29 03:45:44;;;;;;;5.80;3.43;;;18.10;1.00;;;;;;4986517;28;20486;-84
2022/07/29 03:48:13;;;;;;;7.73;2.93;;;18.10;1.00;;;;;;4972357;28;20467;-84
2022/07/29 03:50:39;;;;;;;5.23;3.17;;;18.10;1.00;;;;;;4984323;28;20469;-84
2022/07/29 03:53:05;;;;;;;6.50;3.13;;;18.10;1.00;;;;;;4985791;28;20530;-84
2022/07/29 03:55:36;;;;;;;6.57;3.10;;;18.00;1.00;;;;;;4989339;28;21917;-84
2022/07/29 03:58:02;;;;;;;7.20;3.47;;;18.00;20.20;;;;;;4985761;28;20985;-83
2022/07/29 04:00:29;;;;;;;9.80;4.10;;;18.00;65.90;;;;;;4988944;28;20471;-84
2022/07/29 04:02:55;;;;;;;5.00;3.70;;;18.00;99.90;;;;;;4986707;28;20435;-83
2022/07/29 04:05:21;;;;;;;6.07;3.50;;;17.90;99.90;;;;;;4971825;28;20439;-84
2022/07/29 04:07:47;;;;;;;5.30;3.67;;;17.90;99.90;;;;;;4968772;28;20465;-84
2022/07/29 04:10:15;;;;;;;6.73;4.37;;;17.90;99.90;;;;;;4975387;28;20571;-83
2022/07/29 04:12:41;;;;;;;6.27;3.50;;;17.90;99.90;;;;;;4967925;28;21070;-84
2022/07/29 04:15:07;;;;;;;5.80;3.60;;;18.00;99.90;;;;;;4987164;28;20436;-84
2022/07/29 04:17:33;;;;;;;8.90;3.73;;;18.00;99.90;;;;;;4969142;28;20481;-84
2022/07/29 04:19:59;;;;;;;7.23;4.90;;;18.10;99.90;;;;;;4973560;28;20427;-83
2022/07/29 04:22:27;;;;;;;6.27;3.83;;;18.10;1.00;;;;;;4986640;28;20472;-84
2022/07/29 04:24:52;;;;;;;6.07;4.20;;;18.10;1.00;;;;;;4972982;28;20275;-84
2022/07/29 04:27:18;;;;;;;6.70;3.97;;;18.20;1.00;;;;;;4971477;28;20451;-84
2022/07/29 04:29:43;;;;;;;4.73;3.67;;;18.20;1.00;;;;;;4989511;28;20215;-83
2022/07/29 04:32:09;;;;;;;6.90;3.77;;;18.30;1.00;;;;;;4987700;28;20234;-84
2022/07/29 04:34:34;;;;;;;6.80;4.13;;;18.30;1.00;;;;;;4967962;28;20181;-83
2022/07/29 04:37:00;;;;;;;6.03;4.03;;;18.30;1.00;;;;;;4969961;28;20326;-83
2022/07/29 04:39:25;;;;;;;9.77;4.70;;;18.30;1.00;;;;;;4986635;28;20200;-84
2022/07/29 04:41:51;;;;;;;6.43;4.70;;;18.20;1.00;;;;;;4988336;28;20214;-84
2022/07/29 04:44:17;;;;;;;6.40;4.63;;;18.10;1.00;;;;;;4968448;28;20214;-84
2022/07/29 04:46:43;;;;;;;6.50;4.10;;;18.10;1.00;;;;;;4968114;28;20431;-84
2022/07/29 04:49:08;;;;;;;7.63;4.33;;;18.10;1.00;;;;;;4972842;28;20482;-84
2022/07/29 04:51:34;;;;;;;5.73;4.00;;;18.20;18.90;;;;;;4983207;28;20224;-84
2022/07/29 04:54:00;;;;;;;8.30;4.10;;;18.20;11.70;;;;;;4972849;28;20279;-84
2022/07/29 04:56:26;;;;;;;5.97;3.80;;;18.20;1.00;;;;;;4968254;28;20937;-84
2022/07/29 04:58:52;;;;;;;5.53;3.47;;;18.30;1.00;;;;;;4988757;28;20204;-84
2022/07/29 05:01:18;;;;;;;9.03;4.20;;;18.30;1.00;;;;;;4985344;28;20514;-84
2022/07/29 05:03:45;;;;;;;7.77;4.00;;;18.30;1.00;;;;;;4979163;28;20208;-85
2022/07/29 05:06:10;;;;;;;7.07;4.33;;;18.30;1.00;;;;;;4972608;28;20474;-85
2022/07/29 05:08:36;;;;;;;5.50;4.50;;;18.40;1.00;;;;;;4970820;28;20465;-84
2022/07/29 05:11:02;;;;;;;7.43;3.50;;;18.40;1.00;;;;;;4976837;28;20209;-85
2022/07/29 05:13:27;;;;;;;7.77;3.97;;;18.50;1.00;;;;;;4971627;28;20232;-85
2022/07/29 05:15:53;;;;;;;5.57;4.57;;;18.40;1.00;;;;;;4976405;28;20671;-85
2022/07/29 05:18:19;;;;;;;6.97;4.43;;;18.40;1.00;;;;;;4991172;28;20199;-85
2022/07/29 05:20:44;;;;;;;7.40;3.97;;;18.30;1.00;;;;;;4990828;28;20465;-84
2022/07/29 05:23:12;;;;;;;11.73;3.90;;;18.20;18.90;;;;;;4973449;28;20200;-84
2022/07/29 05:25:38;;;;;;;8.00;4.40;;;18.20;1.00;;;;;;4974348;28;20193;-84
2022/07/29 05:28:04;;;;;;;5.50;3.70;;;18.20;1.00;;;;;;4987939;28;20465;-84
2022/07/29 05:30:29;;;;;;;9.50;4.77;;;18.20;99.90;;;;;;4986652;28;20226;-84
2022/07/29 05:32:55;;;;;;;15.13;5.20;;;18.10;99.90;;;;;;4972336;28;20213;-84
2022/07/29 05:35:20;;;;;;;5.13;4.30;;;18.10;1.00;;;;;;4987215;28;20214;-84
2022/07/29 05:37:46;;;;;;;7.00;4.33;;;18.10;99.90;;;;;;4985133;28;20217;-84
2022/07/29 05:40:11;;;;;;;8.43;4.33;;;18.20;99.90;;;;;;4990803;28;20184;-84
2022/07/29 05:42:37;;;;;;;4.37;3.33;;;18.30;99.90;;;;;;4970563;28;20195;-85
2022/07/29 05:45:03;;;;;;;10.20;3.87;;;18.40;1.00;;;;;;4990028;28;20192;-85
2022/07/29 05:47:29;;;;;;;8.80;4.20;;;18.40;1.00;;;;;;4970180;28;20268;-84
2022/07/29 05:49:54;;;;;;;5.33;3.37;;;18.40;1.00;;;;;;4972775;28;20863;-84
2022/07/29 05:52:20;;;;;;;8.20;4.27;;;18.50;1.00;;;;;;4983603;28;20553;-84
2022/07/29 05:54:46;;;;;;;6.63;3.97;;;18.40;1.00;;;;;;4988618;28;20210;-84
2022/07/29 05:57:19;;;;;;;6.63;4.10;;;18.40;1.00;;;;;;4981312;28;21013;-85
2022/07/29 05:59:46;;;;;;;7.30;3.80;;;18.40;1.00;;;;;;4981645;28;20189;-85
2022/07/29 06:02:11;;;;;;;9.97;4.30;;;18.30;1.00;;;;;;4975405;28;20451;-84
2022/07/29 06:04:37;;;;;;;6.70;3.87;;;18.30;1.00;;;;;;4965798;28;20827;-84
2022/07/29 06:07:03;;;;;;;8.97;4.60;;;18.30;14.80;;;;;;4968886;28;20211;-84
2022/07/29 06:09:29;;;;;;;11.83;4.87;;;18.20;99.90;;;;;;4955250;28;20198;-84
2022/07/29 06:11:54;;;;;;;7.33;4.10;;;18.30;99.90;;;;;;4979245;28;20635;-84
2022/07/29 06:14:20;;;;;;;7.43;4.30;;;18.20;99.90;;;;;;4993248;28;20428;-83
2022/07/29 06:16:46;;;;;;;6.20;4.00;;;18.20;99.90;;;;;;4980128;28;20192;-84
2022/07/29 06:19:11;;;;;;;6.67;3.97;;;18.20;99.90;;;;;;4984807;28;20221;-83
2022/07/29 06:21:41;;;;;;;15.20;5.00;;;18.10;1.00;;;;;;4985860;28;20204;-84
2022/07/29 06:24:07;;;;;;;9.03;4.60;;;18.10;1.00;;;;;;4992968;28;20204;-84
2022/07/29 06:26:33;;;;;;;5.40;4.17;;;18.10;1.00;;;;;;4975200;28;20955;-84
2022/07/29 06:28:58;;;;;;;10.00;4.77;;;18.10;53.10;;;;;;4983780;28;20249;-84
2022/07/29 06:31:24;;;;;;;7.17;4.40;;;18.10;99.90;;;;;;4992719;28;20208;-84
2022/07/29 06:33:50;;;;;;;8.63;4.40;;;18.10;99.90;;;;;;4959863;28;20189;-84
2022/07/29 06:36:15;;;;;;;11.40;4.53;;;18.10;1.00;;;;;;4957545;28;20197;-84
2022/07/29 06:38:41;;;;;;;8.97;4.70;;;18.20;1.00;;;;;;5029103;23;20293;-86
2022/07/29 06:41:11;;;;;;;5.93;4.33;;;18.20;1.00;;;;;;5011601;28;20195;-85
2022/07/29 06:43:41;;;;;;;8.00;4.20;;;18.30;1.00;;;;;;5011854;28;20185;-86
2022/07/29 06:46:09;;;;;;;7.60;4.80;;;18.40;1.00;;;;;;5013670;28;20431;-86
2022/07/29 06:48:35;;;;;;;8.57;5.00;;;18.50;1.00;;;;;;5014344;28;20443;-84
2022/07/29 06:51:02;;;;;;;12.03;4.77;;;18.70;99.90;;;;;;5031782;28;20458;-86
2022/07/29 06:53:29;;;;;;;11.97;4.97;;;18.70;99.90;;;;;;5032049;28;20951;-86
2022/07/29 06:55:55;;;;;;;9.60;4.70;;;18.80;73.20;;;;;;5014365;28;20429;-86
2022/07/29 06:58:20;;;;;;;9.30;4.20;;;18.90;32.00;;;;;;5031413;28;20876;-86
2022/07/29 07:00:49;;;;;;;8.80;4.40;;;18.90;1.00;;;;;;5032130;28;20427;-87
2022/07/29 07:03:16;;;;;;;10.90;4.50;;;19.10;7.50;;;;;;5014229;28;20572;-87
2022/07/29 07:05:41;;;;;;;6.53;4.20;;;19.20;1.00;;;;;;5031608;28;20507;-86
2022/07/29 07:08:07;;;;;;;11.03;4.03;;;19.50;1.00;;;;;;5034878;28;20463;-86
2022/07/29 07:10:33;;;;;;;9.60;4.90;;;19.70;99.90;;;;;;5036190;28;20206;-85
2022/07/29 07:13:00;;;;;;;8.90;4.20;;;19.80;1.00;;;;;;5036439;28;20434;-86
2022/07/29 07:15:26;;;;;;;6.83;4.10;;;19.90;1.00;;;;;;5026560;28;20446;-86
2022/07/29 07:17:52;;;;;;;16.60;5.60;;;19.90;99.90;;;;;;5034717;28;20834;-87
2022/07/29 07:20:18;;;;;;;7.90;4.60;;;19.90;1.00;;;;;;5017657;28;20435;-86
2022/07/29 07:22:44;;;;;;;7.90;5.03;;;19.90;1.00;;;;;;5017409;28;20198;-86
2022/07/29 07:25:10;;;;;;;7.50;4.70;;;19.80;1.00;;;;;;5035342;28;20419;-86
2022/07/29 07:27:37;;;;;;;13.40;5.70;;;19.80;1.00;;;;;;5016582;28;20870;-86
2022/07/29 07:30:05;;;;;;;9.97;5.37;;;19.80;1.00;;;;;;5035106;28;20419;-86
2022/07/29 07:32:31;;;;;;;15.63;5.10;;;19.70;1.00;;;;;;5035175;28;20977;-86
2022/07/29 07:34:58;;;;;;;7.37;4.80;;;19.70;1.00;;;;;;5035352;28;20449;-86
2022/07/29 07:37:24;;;;;;;7.53;5.27;;;19.60;1.00;;;;;;5015965;28;20930;-86
2022/07/29 07:39:51;;;;;;;9.80;5.17;;;19.50;1.00;;;;;;5017001;28;20439;-86
2022/07/29 07:42:17;;;;;;;10.70;5.30;;;19.50;1.00;;;;;;5034918;28;20459;-85
2022/07/29 07:44:42;;;;;;;8.70;4.90;;;19.30;1.00;;;;;;5035013;28;20431;-86
2022/07/29 07:47:08;;;;;;;7.73;4.90;;;19.20;1.00;;;;;;5033573;28;20433;-84
2022/07/29 07:49:34;;;;;;;8.10;4.90;;;19.20;76.70;;;;;;5034729;28;20184;-86
2022/07/29 07:51:59;;;;;;;7.50;5.20;;;19.20;99.90;;;;;;5016562;28;20219;-85
2022/07/29 07:54:25;;;;;;;9.57;5.53;;;19.10;99.90;;;;;;5034474;28;20193;-87
2022/07/29 07:56:50;;;;;;;10.97;5.50;;;19.10;99.90;;;;;;5034519;28;20187;-86
2022/07/29 07:59:16;;;;;;;10.40;5.20;;;19.20;99.90;;;;;;5034067;28;20234;-86
2022/07/29 08:01:42;;;;;;;13.20;5.53;;;19.30;99.90;;;;;;5034905;28;20189;-86
2022/07/29 08:04:08;;;;;;;9.93;4.67;;;19.40;92.80;;;;;;5034167;28;22099;-87
2022/07/29 08:06:35;;;;;;;12.80;4.97;;;19.60;1.00;;;;;;5033877;28;20277;-87
2022/07/29 08:09:02;;;;;;;10.57;4.80;;;19.80;1.00;;;;;;5016575;28;20828;-86
2022/07/29 08:11:28;;;;;;;12.57;5.77;;;20.10;1.00;;;;;;5033915;28;20990;-86
2022/07/29 08:13:54;;;;;;;9.47;5.30;;;20.50;99.90;;;;;;5034181;28;20455;-86
2022/07/29 08:16:19;;;;;;;9.73;5.30;;;20.80;99.90;;;;;;5033774;28;20430;-86
2022/07/29 08:18:46;;;;;;;10.23;4.77;;;21.30;90.90;;;;;;5033611;28;20204;-86
2022/07/29 08:21:13;;;;;;;8.80;4.30;;;22.60;1.00;;;;;;5016301;28;20231;-84
2022/07/29 08:23:39;;;;;;;8.43;4.80;;;23.10;1.00;;;;;;5033607;28;20429;-85
2022/07/29 08:26:10;;;;;;;7.20;4.90;;;23.90;99.90;;;;;;5015442;28;20442;-86
2022/07/29 08:28:46;;;;;;;11.37;4.20;;;24.90;99.90;;;;;;5033658;28;20451;-85
2022/07/29 08:31:12;;;;;;;10.77;4.03;;;28.60;99.90;;;;;;5015573;28;20471;-86
2022/07/29 08:33:38;;;;;;;8.63;4.30;;;30.10;99.90;;;;;;5033573;28;20424;-87
2022/07/29 08:36:05;;;;;;;9.90;4.10;;;31.20;99.90;;;;;;5015469;28;21134;-87
2022/07/29 08:38:31;;;;;;;6.00;3.27;;;35.90;99.90;;;;;;5015572;28;20468;-87
2022/07/29 08:41:00;;;;;;;10.00;3.70;;;39.60;99.90;;;;;;5033585;28;20425;-87
2022/07/29 08:43:27;;;;;;;7.23;3.67;;;42.00;99.90;;;;;;5034251;28;20214;-88
2022/07/29 08:45:55;;;;;;;9.00;2.90;;;43.90;99.90;;;;;;5033717;28;20436;-89
2022/07/29 08:48:23;;;;;;;7.03;2.63;;;44.90;99.90;;;;;;5033568;28;20459;-88
2022/07/29 08:50:53;;;;;;;4.27;2.80;;;46.30;99.90;;;;;;5015657;28;20461;-87
2022/07/29 08:53:19;;;;;;;9.70;3.50;;;47.90;99.90;;;;;;5016327;28;20457;-86
2022/07/29 08:55:49;;;;;;;8.00;2.97;;;48.50;94.50;;;;;;5034254;28;20455;-87
2022/07/29 08:58:16;;;;;;;5.83;3.10;;;49.40;86.50;;;;;;5016414;28;20452;-87
2022/07/29 09:00:45;;;;;;;5.67;3.03;;;50.20;73.60;;;;;;5034259;28;20904;-87
2022/07/29 09:03:14;;;;;;;5.40;2.70;;;50.70;62.50;;;;;;5034217;28;20940;-87
2022/07/29 09:05:42;;;;;;;4.77;2.67;;;51.10;55.20;;;;;;5033913;28;20462;-87
2022/07/29 09:08:13;;;;;;;7.23;3.13;;;50.80;46.30;;;;;;5015970;28;20448;-86
2022/07/29 09:10:39;;;;;;;6.00;2.67;;;50.60;39.30;;;;;;5034822;28;20493;-87
2022/07/29 09:13:05;;;;;;;6.30;2.97;;;49.90;32.10;;;;;;5016546;28;20534;-87
2022/07/29 09:15:30;;;;;;;3.63;2.30;;;49.50;28.50;;;;;;5034458;28;20456;-87
2022/07/29 09:17:58;;;;;;;9.10;2.60;;;49.80;26.70;;;;;;5016191;28;20216;-87
2022/07/29 09:20:25;;;;;;;6.80;2.40;;;50.50;25.60;;;;;;5034520;28;20201;-87
2022/07/29 09:22:53;;;;;;;7.23;2.80;;;50.40;23.50;;;;;;5034238;28;20420;-87
2022/07/29 09:25:34;;;;;;;6.03;2.37;;;50.80;21.70;;;;;;5034426;28;20420;-86
2022/07/29 09:28:26;;;;;;;7.70;3.00;;;51.10;20.00;;;;;;5033220;28;20520;-87
2022/07/29 09:30:53;;;;;;;7.60;2.83;;;51.60;19.20;;;;;;5012640;28;20520;-87
2022/07/29 09:33:20;;;;;;;2.60;2.10;;;50.90;15.70;;;;;;5016471;28;20448;-87
2022/07/29 09:36:06;;;;;;;5.57;2.70;;;51.10;14.60;;;;;;5016134;28;20424;-87
2022/07/29 09:38:33;;;;;;;3.80;2.50;;;51.50;13.50;;;;;;5033819;28;20456;-87
2022/07/29 09:41:00;;;;;;;3.13;2.00;;;50.10;9.80;;;;;;5034041;28;20459;-87
2022/07/29 09:43:26;;;;;;;3.50;1.93;;;50.20;9.10;;;;;;5016835;28;20527;-87
2022/07/29 09:45:54;;;;;;;3.90;2.13;;;49.10;6.30;;;;;;5016575;28;20464;-87
2022/07/29 09:48:22;;;;;;;4.87;2.67;;;45.80;1.60;;;;;;5033862;28;20696;-87
2022/07/29 09:50:49;;;;;;;6.73;2.77;;;42.70;1.00;;;;;;5034349;28;20464;-87
2022/07/29 09:53:37;;;;;;;6.23;2.87;;;40.20;1.00;;;;;;5016838;28;20468;-85
2022/07/29 09:56:03;;;;;;;5.83;2.83;;;38.10;1.00;;;;;;5033693;28;20453;-86
2022/07/29 09:58:30;;;;;;;5.20;2.87;;;36.60;1.00;;;;;;5035490;28;20492;-88
2022/07/29 10:00:56;;;;;;;5.03;2.90;;;35.30;1.00;;;;;;5017824;28;20468;-86
2022/07/29 10:03:22;;;;;;;7.53;3.13;;;34.20;1.00;;;;;;5034590;28;20449;-87
2022/07/29 10:06:05;;;;;;;9.93;3.40;;;33.40;1.00;;;;;;5016331;28;20425;-87
2022/07/29 10:08:31;;;;;;;5.90;3.20;;;32.60;1.00;;;;;;5034115;28;20444;-87
2022/07/29 10:11:10;;;;;;;9.00;3.87;;;31.90;1.00;;;;;;5033889;28;20455;-85
2022/07/29 10:13:35;;;;;;;5.93;3.90;;;31.50;3.30;;;;;;5016604;28;20189;-85
2022/07/29 10:16:02;;;;;;;6.07;4.00;;;31.10;5.90;;;;;;5033731;28;20433;-85
2022/07/29 10:18:28;;;;;;;8.50;4.33;;;30.90;7.80;;;;;;5033995;28;20206;-86
2022/07/29 10:20:54;;;;;;;8.53;3.50;;;30.80;9.60;;;;;;5034350;28;20500;-86
2022/07/29 10:23:20;;;;;;;8.30;4.20;;;30.70;11.30;;;;;;5016741;28;20475;-86
2022/07/29 10:25:46;;;;;;;7.93;4.30;;;30.70;12.50;;;;;;5034495;28;20500;-86
2022/07/29 10:28:12;;;;;;;5.63;4.00;;;30.90;14.90;;;;;;5033522;28;20202;-87
2022/07/29 10:30:39;;;;;;;7.23;4.47;;;31.10;17.10;;;;;;5016248;28;22227;-86
2022/07/29 10:33:12;;;;;;;7.77;4.40;;;31.30;18.20;;;;;;5016470;28;21003;-86
2022/07/29 10:35:52;;;;;;;6.47;3.83;;;31.40;20.00;;;;;;5033726;28;20473;-87
2022/07/29 10:38:42;;;;;;;9.23;4.73;;;31.40;20.80;;;;;;5033899;28;20470;-86
2022/07/29 10:41:26;;;;;;;7.00;3.87;;;31.30;22.00;;;;;;5018543;28;20498;-86
2022/07/29 10:43:54;;;;;;;6.20;3.87;;;31.30;22.70;;;;;;5037402;28;20432;-85
2022/07/29 10:46:20;;;;;;;7.23;3.47;;;31.30;23.40;;;;;;5036746;28;20495;-86
2022/07/29 10:49:15;;;;;;;7.20;3.70;;;31.20;23.60;;;;;;5037155;28;20445;-87
2022/07/29 10:51:58;;;;;;;6.67;4.23;;;31.20;24.10;;;;;;5037932;28;20464;-86
2022/07/29 10:54:39;;;;;;;6.47;3.47;;;31.20;25.20;;;;;;5037624;28;20420;-87
2022/07/29 10:57:30;;;;;;;7.97;4.23;;;31.20;26.00;;;;;;5019398;28;20498;-87
2022/07/29 11:00:04;;;;;;;10.47;3.87;;;31.30;26.80;;;;;;5020265;28;21195;-87
2022/07/29 11:02:32;;;;;;;7.77;4.40;;;31.50;27.90;;;;;;5036364;28;20543;-86
2022/07/29 11:04:58;;;;;;;6.90;4.10;;;31.80;29.30;;;;;;5037190;28;20424;-87
2022/07/29 11:07:25;;;;;;;9.17;3.80;;;32.20;30.20;;;;;;5018032;28;20421;-86
2022/07/29 11:10:12;;;;;;;6.90;3.20;;;33.00;32.60;;;;;;5037079;28;20183;-86
2022/07/29 11:12:37;;;;;;;6.67;4.03;;;33.20;34.00;;;;;;5036779;28;20413;-85
2022/07/29 11:15:08;;;;;;;11.13;4.47;;;33.80;35.20;;;;;;5037422;28;20956;-86
2022/07/29 11:17:52;;;;;;;8.77;3.40;;;35.10;39.00;;;;;;5036695;28;20664;-87
2022/07/29 11:20:53;;;;;;;7.33;3.80;;;36.30;40.60;;;;;;5038111;28;20424;-86
2022/07/29 11:23:31;;;;;;;10.50;4.00;;;37.10;52.30;;;;;;4991752;28;20519;-87
2022/07/29 11:26:13;;;;;;;6.23;3.10;;;38.10;40.40;;;;;;5037249;28;20941;-87
2022/07/29 11:28:53;;;;;;;7.00;4.03;;;38.60;39.40;;;;;;5037529;28;20571;-86
2022/07/29 11:31:38;;;;;;;7.33;3.80;;;38.90;38.40;;;;;;5034390;28;20791;-87
2022/07/29 11:34:23;;;;;;;5.63;4.10;;;39.60;38.30;;;;;;5036974;28;20417;-87
2022/07/29 11:37:08;;;;;;;6.63;4.03;;;39.60;36.00;;;;;;5029516;28;20413;-87
2022/07/29 11:39:36;;;;;;;8.33;4.27;;;40.00;34.30;;;;;;5036974;28;20421;-87
2022/07/29 11:42:20;;;;;;;5.77;4.20;;;40.00;33.20;;;;;;5019778;28;20464;-86
2022/07/29 11:45:07;;;;;;;5.30;3.60;;;40.40;32.30;;;;;;5019479;28;21068;-87
2022/07/29 11:47:50;;;;;;;8.70;3.50;;;40.70;30.60;;;;;;5036852;28;20438;-87
2022/07/29 11:50:26;;;;;;;6.37;3.97;;;40.90;29.70;;;;;;5037881;28;20413;-87
2022/07/29 11:52:51;;;;;;;4.90;2.83;;;40.80;28.40;;;;;;5036835;28;20997;-87
2022/07/29 11:55:19;;;;;;;6.80;3.20;;;40.90;27.00;;;;;;5038147;28;20496;-86
2022/07/29 11:57:47;;;;;;;8.03;3.17;;;41.00;26.30;;;;;;5037409;28;20195;-88
2022/07/29 12:00:29;;;;;;;8.37;2.97;;;41.00;25.10;;;;;;5037254;28;20424;-86
2022/07/29 12:02:55;;;;;;;5.37;3.40;;;41.00;24.60;;;;;;5037635;28;20421;-87
2022/07/29 12:05:29;;;;;;;5.53;3.20;;;40.80;23.40;;;;;;5019090;28;20428;-87
2022/07/29 12:07:55;;;;;;;4.20;2.63;;;40.60;22.70;;;;;;5033580;28;20803;-88
2022/07/29 12:10:21;;;;;;;6.70;3.13;;;40.80;22.20;;;;;;5037836;28;20512;-87
2022/07/29 12:12:52;;;;;;;5.70;2.87;;;41.00;22.90;;;;;;5020187;28;20263;-87
2022/07/29 12:15:20;;;;;;;4.13;2.77;;;41.20;22.40;;;;;;5020228;28;20184;-86
2022/07/29 12:17:47;;;;;;;5.60;3.07;;;41.00;21.00;;;;;;5019155;28;20445;-87
2022/07/29 12:20:13;;;;;;;4.87;2.90;;;41.00;20.70;;;;;;5038810;28;20409;-86
2022/07/29 12:22:40;;;;;;;5.17;3.07;;;41.20;20.30;;;;;;5037890;28;20425;-87
2022/07/29 12:25:07;;;;;;;4.50;2.53;;;41.20;20.10;;;;;;5038024;28;20185;-85
2022/07/29 12:27:33;;;;;;;4.37;2.50;;;41.50;20.50;;;;;;5037093;28;20814;-87
2022/07/29 12:30:01;;;;;;;3.43;2.70;;;41.60;20.50;;;;;;5019772;28;20433;-87
2022/07/29 12:32:34;;;;;;;5.53;3.37;;;41.40;18.70;;;;;;5037939;28;20232;-87
2022/07/29 12:35:05;;;;;;;6.40;3.77;;;41.30;18.40;;;;;;5020464;28;20798;-88
2022/07/29 12:40:02;;;;;;;5.33;2.70;;;40.90;16.80;;;;;;5009936;28;20469;-84
2022/07/29 12:42:28;;;;;;;5.23;3.13;;;40.90;17.10;;;;;;4999391;28;20485;-84
2022/07/29 12:44:54;;;;;;;6.80;3.70;;;40.70;16.00;;;;;;5019970;28;20421;-84
2022/07/29 12:47:21;;;;;;;6.43;4.47;;;40.60;15.80;;;;;;5002250;28;20183;-84
2022/07/29 12:49:47;;;;;;;6.70;3.90;;;40.20;15.50;;;;;;5038345;28;20206;-84
2022/07/29 12:52:33;;;;;;;4.60;3.30;;;40.10;15.20;;;;;;5037650;28;20831;-84
2022/07/29 12:54:58;;;;;;;6.10;2.70;;;39.90;14.60;;;;;;5002426;28;20762;-84
2022/07/29 12:57:24;;;;;;;5.60;2.80;;;39.70;14.80;;;;;;5014673;28;20428;-83
2022/07/29 13:00:00;;;;;;;6.67;3.50;;;39.70;14.80;;;;;;5006175;28;20209;-83
2022/07/29 13:02:26;;;;;;;8.87;2.50;;;39.60;14.90;;;;;;5023113;28;21062;-83
2022/07/29 13:04:59;;;;;;;4.50;2.97;;;39.60;14.40;;;;;;5000851;28;20457;-83